createdAt,value
2018-09-11T00:00:30.045Z,15.62
2018-09-11T00:01:38.945Z,15.67
2018-09-11T00:02:47.594Z,15.66
2018-09-11T00:03:56.227Z,15.66
2018-09-11T00:05:04.881Z,15.66
2018-09-11T00:06:13.520Z,15.69
2018-09-11T00:07:22.434Z,15.67
2018-09-11T00:08:31.332Z,15.62
2018-09-11T00:09:39.986Z,15.75
2018-09-11T00:10:48.629Z,15.73
2018-09-11T00:11:57.275Z,15.72
2018-09-11T00:13:06.173Z,15.78
2018-09-11T00:14:14.825Z,15.76
2018-09-11T00:15:23.472Z,15.85
2018-09-11T00:16:32.118Z,15.83
2018-09-11T00:17:41.026Z,15.91
2018-09-11T00:18:49.658Z,15.91
2018-09-11T00:19:58.308Z,15.91
2018-09-11T00:21:06.950Z,15.92
2018-09-11T00:22:15.605Z,15.91
2018-09-11T00:23:24.505Z,15.94
2018-09-11T00:24:33.156Z,15.99
2018-09-11T00:25:41.794Z,15.96
2018-09-11T00:26:50.447Z,16.05
2018-09-11T00:27:59.083Z,15.98
2018-09-11T00:29:07.736Z,16.02
2018-09-11T00:30:16.642Z,15.94
2018-09-11T00:31:25.296Z,15.96
2018-09-11T00:32:33.939Z,16.02
2018-09-11T00:33:42.584Z,16.05
2018-09-11T00:34:51.227Z,16.06
2018-09-11T00:35:59.869Z,16.08
2018-09-11T00:37:08.789Z,16.12
2018-09-11T00:38:17.438Z,16.09
2018-09-11T00:39:26.350Z,16.05
2018-09-11T00:40:34.987Z,16.1
2018-09-11T00:41:43.632Z,16.06
2018-09-11T00:42:52.282Z,16.08
2018-09-11T00:44:00.928Z,16.1
2018-09-11T00:45:09.585Z,16.02
2018-09-11T00:46:18.219Z,16.03
2018-09-11T00:47:26.865Z,16.08
2018-09-11T00:48:35.513Z,16
2018-09-11T00:49:44.169Z,16.06
2018-09-11T00:50:52.803Z,16.08
2018-09-11T00:52:01.642Z,16.09
2018-09-11T00:53:10.053Z,16.06
2018-09-11T00:54:18.940Z,16.1
2018-09-11T00:55:27.573Z,16.08
2018-09-11T00:56:36.197Z,16.06
2018-09-11T00:57:44.829Z,16.03
2018-09-11T00:58:53.446Z,16.06
2018-09-11T01:00:02.348Z,16.08
2018-09-11T01:01:10.977Z,16.06
2018-09-11T01:02:19.873Z,16.05
2018-09-11T01:03:28.487Z,16.02
2018-09-11T01:04:37.123Z,16.03
2018-09-11T01:05:45.749Z,16.03
2018-09-11T01:06:54.377Z,16.08
2018-09-11T01:08:02.994Z,16.08
2018-09-11T01:09:11.632Z,16.22
2018-09-11T01:10:20.793Z,16.12
2018-09-11T01:11:29.342Z,16.16
2018-09-11T01:12:38.254Z,16.17
2018-09-11T01:13:46.890Z,16.16
2018-09-11T01:14:55.537Z,16.18
2018-09-11T01:16:04.177Z,16.18
2018-09-11T01:17:12.833Z,16.17
2018-09-11T01:18:21.467Z,16.16
2018-09-11T01:19:30.116Z,16.16
2018-09-11T01:20:38.759Z,16.13
2018-09-11T01:21:47.678Z,16.16
2018-09-11T01:22:56.321Z,16.13
2018-09-11T01:24:04.963Z,16.18
2018-09-11T01:25:13.607Z,16.24
2018-09-11T01:26:22.260Z,16.09
2018-09-11T01:27:31.169Z,16.09
2018-09-11T01:28:39.814Z,16.03
2018-09-11T01:29:48.458Z,16
2018-09-11T01:30:57.099Z,15.92
2018-09-11T01:32:05.753Z,15.92
2018-09-11T01:33:14.393Z,15.88
2018-09-11T01:34:23.043Z,15.84
2018-09-11T01:35:31.937Z,15.88
2018-09-11T01:36:40.590Z,15.84
2018-09-11T01:37:49.230Z,15.84
2018-09-11T01:38:57.881Z,15.78
2018-09-11T01:40:06.517Z,15.67
2018-09-11T01:41:15.170Z,15.7
2018-09-11T01:42:24.076Z,15.69
2018-09-11T01:43:32.722Z,15.63
2018-09-11T01:44:41.359Z,15.65
2018-09-11T01:45:50.009Z,15.66
2018-09-11T01:46:58.652Z,15.6
2018-09-11T01:48:07.299Z,15.6
2018-09-11T01:49:15.948Z,15.6
2018-09-11T01:50:24.591Z,15.47
2018-09-11T01:51:33.493Z,15.54
2018-09-11T01:52:42.137Z,15.55
2018-09-11T01:53:50.786Z,15.52
2018-09-11T01:54:59.425Z,15.54
2018-09-11T01:56:08.069Z,15.51
2018-09-11T01:57:16.714Z,15.62
2018-09-11T01:58:25.363Z,15.51
2018-09-11T01:59:34.005Z,15.62
2018-09-11T02:00:42.648Z,15.5
2018-09-11T02:01:51.289Z,15.47
2018-09-11T02:02:59.939Z,15.44
2018-09-11T02:04:08.581Z,15.41
2018-09-11T02:05:17.749Z,15.45
2018-09-11T02:06:26.392Z,15.47
2018-09-11T02:07:35.034Z,15.39
2018-09-11T02:08:43.683Z,15.37
2018-09-11T02:09:52.590Z,15.39
2018-09-11T02:11:01.503Z,15.43
2018-09-11T02:12:10.143Z,15.41
2018-09-11T02:13:18.793Z,15.35
2018-09-11T02:14:27.434Z,15.36
2018-09-11T02:15:36.079Z,15.43
2018-09-11T02:16:44.985Z,15.37
2018-09-11T02:17:53.633Z,15.36
2018-09-11T02:19:02.276Z,15.3
2018-09-11T02:20:10.923Z,15.36
2018-09-11T02:21:19.564Z,15.39
2018-09-11T02:22:28.202Z,15.36
2018-09-11T02:23:36.849Z,15.36
2018-09-11T02:24:45.496Z,15.3
2018-09-11T02:25:54.128Z,15.32
2018-09-11T02:27:02.748Z,15.3
2018-09-11T02:28:11.369Z,15.3
2018-09-11T02:29:19.991Z,15.3
2018-09-11T02:30:28.872Z,15.25
2018-09-11T02:31:37.495Z,15.29
2018-09-11T02:32:46.116Z,15.19
2018-09-11T02:33:54.738Z,15.25
2018-09-11T02:35:03.622Z,15.3
2018-09-11T02:36:12.244Z,15.27
2018-09-11T02:37:20.894Z,15.23
2018-09-11T02:38:30.065Z,15.25
2018-09-11T02:39:38.727Z,15.25
2018-09-11T02:40:47.372Z,15.18
2018-09-11T02:41:56.272Z,15.18
2018-09-11T02:43:04.913Z,15.18
2018-09-11T02:44:13.553Z,15.14
2018-09-11T02:45:22.208Z,15.26
2018-09-11T02:46:31.106Z,15.26
2018-09-11T02:47:40.014Z,15.18
2018-09-11T02:48:48.648Z,15.17
2018-09-11T02:49:57.310Z,15.18
2018-09-11T02:51:05.951Z,15.15
2018-09-11T02:52:14.862Z,15.19
2018-09-11T02:53:23.761Z,15.18
2018-09-11T02:54:32.413Z,15.18
2018-09-11T02:55:41.055Z,15.07
2018-09-11T02:56:49.704Z,15.02
2018-09-11T02:57:58.344Z,15.11
2018-09-11T02:59:06.990Z,15.04
2018-09-11T03:00:15.655Z,15
2018-09-11T03:01:24.556Z,15
2018-09-11T03:02:33.203Z,14.99
2018-09-11T03:03:41.841Z,14.96
2018-09-11T03:04:50.754Z,14.92
2018-09-11T03:05:59.396Z,15
2018-09-11T03:07:08.054Z,14.93
2018-09-11T03:08:16.689Z,14.89
2018-09-11T03:09:25.337Z,14.92
2018-09-11T03:10:33.986Z,14.93
2018-09-11T03:11:42.906Z,14.93
2018-09-11T03:12:51.540Z,14.85
2018-09-11T03:14:00.188Z,14.82
2018-09-11T03:15:08.832Z,14.82
2018-09-11T03:16:17.485Z,14.86
2018-09-11T03:17:26.128Z,14.87
2018-09-11T03:18:34.769Z,14.77
2018-09-11T03:19:44.266Z,14.7
2018-09-11T03:20:52.908Z,14.77
2018-09-11T03:22:01.829Z,14.67
2018-09-11T03:23:10.467Z,14.73
2018-09-11T03:24:19.379Z,14.68
2018-09-11T03:25:28.012Z,14.73
2018-09-11T03:26:36.930Z,14.68
2018-09-11T03:27:45.569Z,14.73
2018-09-11T03:28:54.219Z,14.67
2018-09-11T03:30:02.856Z,14.63
2018-09-11T03:31:11.513Z,14.7
2018-09-11T03:32:20.416Z,14.67
2018-09-11T03:33:29.343Z,14.66
2018-09-11T03:34:37.977Z,14.59
2018-09-11T03:35:46.624Z,14.62
2018-09-11T03:36:55.274Z,14.59
2018-09-11T03:38:03.917Z,14.56
2018-09-11T03:39:12.571Z,14.58
2018-09-11T03:40:21.208Z,14.58
2018-09-11T03:41:29.853Z,14.59
2018-09-11T03:42:38.498Z,14.62
2018-09-11T03:43:47.147Z,14.66
2018-09-11T03:44:55.787Z,14.59
2018-09-11T03:46:04.703Z,14.56
2018-09-11T03:47:13.623Z,14.58
2018-09-11T03:48:22.539Z,14.58
2018-09-11T03:49:31.186Z,14.63
2018-09-11T03:50:40.094Z,14.58
2018-09-11T03:51:49.005Z,14.67
2018-09-11T03:52:57.657Z,14.63
2018-09-11T03:54:06.585Z,14.67
2018-09-11T03:55:15.233Z,14.78
2018-09-11T03:56:23.879Z,14.71
2018-09-11T03:57:32.523Z,14.9
2018-09-11T03:58:41.177Z,14.89
2018-09-11T03:59:49.830Z,14.9
2018-09-11T04:00:58.468Z,14.96
2018-09-11T04:02:07.107Z,14.93
2018-09-11T04:03:15.755Z,15.1
2018-09-11T04:04:24.409Z,14.97
2018-09-11T04:05:34.371Z,15.08
2018-09-11T04:06:42.872Z,15.11
2018-09-11T04:07:51.538Z,15.11
2018-09-11T04:09:00.181Z,15.17
2018-09-11T04:10:09.108Z,15.15
2018-09-11T04:11:18.011Z,15.18
2018-09-11T04:12:26.659Z,15.18
2018-09-11T04:13:35.304Z,15.25
2018-09-11T04:14:43.960Z,15.29
2018-09-11T04:15:52.871Z,15.27
2018-09-11T04:17:01.769Z,15.35
2018-09-11T04:18:10.413Z,15.35
2018-09-11T04:19:19.060Z,15.27
2018-09-11T04:20:27.968Z,15.32
2018-09-11T04:21:36.607Z,15.27
2018-09-11T04:22:45.511Z,15.22
2018-09-11T04:23:54.156Z,15.23
2018-09-11T04:25:02.807Z,15.17
2018-09-11T04:26:11.442Z,15.23
2018-09-11T04:27:20.618Z,15.15
2018-09-11T04:28:29.261Z,15.1
2018-09-11T04:29:37.909Z,15.17
2018-09-11T04:30:46.816Z,15.14
2018-09-11T04:31:55.459Z,15.1
2018-09-11T04:33:04.100Z,15.04
2018-09-11T04:34:13.004Z,15.02
2018-09-11T04:35:21.655Z,14.97
2018-09-11T04:36:30.719Z,14.99
2018-09-11T04:37:40.067Z,14.92
2018-09-11T04:38:48.716Z,14.99
2018-09-11T04:39:57.357Z,14.94
2018-09-11T04:41:06.010Z,14.93
2018-09-11T04:42:14.652Z,14.93
2018-09-11T04:43:23.302Z,14.92
2018-09-11T04:44:32.205Z,14.89
2018-09-11T04:45:41.126Z,14.87
2018-09-11T04:46:49.768Z,14.86
2018-09-11T04:47:58.417Z,14.89
2018-09-11T04:49:07.062Z,14.93
2018-09-11T04:50:15.705Z,14.96
2018-09-11T04:51:24.350Z,14.89
2018-09-11T04:52:33.523Z,14.93
2018-09-11T04:53:42.170Z,14.96
2018-09-11T04:54:50.819Z,14.96
2018-09-11T04:55:59.545Z,14.9
2018-09-11T04:57:08.440Z,14.97
2018-09-11T04:58:17.349Z,15.04
2018-09-11T04:59:26.258Z,14.92
2018-09-11T05:00:34.902Z,14.97
2018-09-11T05:01:43.540Z,15
2018-09-11T05:02:52.190Z,15
2018-09-11T05:04:00.842Z,15.04
2018-09-11T05:05:09.491Z,15.15
2018-09-11T05:06:18.398Z,15.17
2018-09-11T05:07:27.044Z,15.18
2018-09-11T05:08:35.689Z,15.23
2018-09-11T05:09:44.335Z,15.27
2018-09-11T05:10:52.995Z,15.22
2018-09-11T05:12:01.627Z,15.36
2018-09-11T05:13:10.537Z,15.32
2018-09-11T05:14:19.186Z,15.27
2018-09-11T05:15:27.830Z,15.36
2018-09-11T05:16:36.471Z,15.27
2018-09-11T05:17:45.120Z,15.29
2018-09-11T05:18:53.766Z,15.29
2018-09-11T05:20:02.417Z,15.32
2018-09-11T05:21:11.321Z,15.22
2018-09-11T05:22:19.966Z,15.26
2018-09-11T05:23:28.606Z,15.26
2018-09-11T05:24:37.259Z,15.23
2018-09-11T05:25:45.900Z,15.22
2018-09-11T05:26:54.542Z,15.23
2018-09-11T05:28:03.185Z,15.26
2018-09-11T05:29:11.826Z,15.23
2018-09-11T05:30:20.479Z,15.29
2018-09-11T05:31:29.127Z,15.26
2018-09-11T05:32:37.776Z,15.32
2018-09-11T05:33:46.415Z,15.33
2018-09-11T05:34:55.088Z,15.26
2018-09-11T05:36:03.997Z,15.27
2018-09-11T05:37:12.648Z,15.29
2018-09-11T05:38:21.279Z,15.36
2018-09-11T05:39:29.938Z,15.29
2018-09-11T05:40:38.579Z,15.33
2018-09-11T05:41:47.223Z,15.35
2018-09-11T05:42:56.125Z,15.39
2018-09-11T05:44:05.040Z,15.35
2018-09-11T05:45:13.687Z,15.35
2018-09-11T05:46:22.334Z,15.41
2018-09-11T05:47:30.981Z,15.37
2018-09-11T05:48:39.630Z,15.45
2018-09-11T05:49:48.283Z,15.41
2018-09-11T05:50:56.929Z,15.48
2018-09-11T05:52:05.589Z,15.52
2018-09-11T05:53:14.221Z,15.51
2018-09-11T05:54:23.409Z,15.48
2018-09-11T05:55:32.050Z,15.62
2018-09-11T05:56:40.704Z,15.62
2018-09-11T05:57:49.601Z,15.65
2018-09-11T05:58:58.250Z,15.69
2018-09-11T06:00:06.892Z,15.73
2018-09-11T06:01:15.544Z,15.7
2018-09-11T06:02:24.448Z,15.8
2018-09-11T06:03:33.089Z,15.84
2018-09-11T06:04:41.998Z,15.9
2018-09-11T06:05:50.642Z,15.96
2018-09-11T06:06:59.296Z,15.98
2018-09-11T06:08:07.933Z,16.1
2018-09-11T06:09:16.581Z,16.09
2018-09-11T06:10:25.214Z,16.17
2018-09-11T06:11:33.868Z,16.18
2018-09-11T06:12:42.509Z,16.13
2018-09-11T06:13:51.157Z,16.17
2018-09-11T06:14:59.796Z,16.22
2018-09-11T06:16:08.490Z,16.39
2018-09-11T06:17:17.097Z,16.32
2018-09-11T06:18:25.749Z,16.34
2018-09-11T06:19:34.380Z,16.43
2018-09-11T06:20:43.037Z,16.39
2018-09-11T06:21:51.686Z,16.43
2018-09-11T06:23:00.336Z,16.43
2018-09-11T06:24:09.250Z,16.44
2018-09-11T06:25:18.164Z,16.5
2018-09-11T06:26:26.814Z,16.51
2018-09-11T06:27:35.454Z,16.58
2018-09-11T06:28:44.111Z,16.59
2018-09-11T06:29:52.744Z,16.62
2018-09-11T06:31:01.395Z,16.66
2018-09-11T06:32:10.034Z,16.68
2018-09-11T06:33:18.680Z,16.64
2018-09-11T06:34:27.326Z,16.8
2018-09-11T06:35:35.975Z,16.8
2018-09-11T06:36:44.615Z,16.74
2018-09-11T06:37:53.255Z,16.69
2018-09-11T06:39:01.902Z,16.79
2018-09-11T06:40:10.554Z,16.87
2018-09-11T06:41:19.280Z,16.82
2018-09-11T06:42:28.119Z,16.84
2018-09-11T06:43:36.759Z,16.86
2018-09-11T06:44:45.418Z,16.99
2018-09-11T06:45:54.058Z,16.94
2018-09-11T06:47:02.738Z,16.95
2018-09-11T06:48:11.361Z,17.01
2018-09-11T06:49:20.273Z,17.07
2018-09-11T06:50:28.920Z,16.95
2018-09-11T06:51:37.569Z,16.99
2018-09-11T06:52:46.212Z,17.02
2018-09-11T06:53:54.858Z,17.04
2018-09-11T06:55:03.762Z,17.01
2018-09-11T06:56:12.414Z,16.99
2018-09-11T06:57:21.058Z,16.94
2018-09-11T06:58:29.971Z,16.99
2018-09-11T06:59:38.730Z,16.99
2018-09-11T07:00:47.374Z,17.01
2018-09-11T07:01:56.325Z,17.07
2018-09-11T07:03:04.934Z,17.04
2018-09-11T07:04:13.577Z,17.01
2018-09-11T07:05:22.491Z,17.04
2018-09-11T07:06:31.392Z,17.13
2018-09-11T07:07:40.040Z,17.22
2018-09-11T07:08:48.681Z,17.27
2018-09-11T07:09:57.324Z,17.27
2018-09-11T07:11:05.973Z,17.31
2018-09-11T07:12:14.881Z,17.28
2018-09-11T07:13:23.528Z,17.37
2018-09-11T07:14:32.191Z,17.52
2018-09-11T07:15:40.817Z,17.46
2018-09-11T07:16:49.464Z,17.57
2018-09-11T07:17:58.112Z,17.59
2018-09-11T07:19:06.764Z,17.56
2018-09-11T07:20:16.569Z,17.69
2018-09-11T07:21:24.852Z,17.71
2018-09-11T07:22:33.501Z,17.73
2018-09-11T07:23:42.147Z,17.79
2018-09-11T07:24:50.789Z,17.78
2018-09-11T07:25:59.437Z,17.82
2018-09-11T07:27:08.080Z,17.88
2018-09-11T07:28:16.736Z,17.9
2018-09-11T07:29:25.643Z,17.9
2018-09-11T07:30:34.559Z,18.08
2018-09-11T07:31:43.462Z,18.09
2018-09-11T07:32:52.117Z,18.13
2018-09-11T07:34:00.759Z,18.28
2018-09-11T07:35:09.675Z,18.28
2018-09-11T07:36:18.344Z,18.39
2018-09-11T07:37:26.972Z,18.49
2018-09-11T07:38:35.627Z,18.43
2018-09-11T07:39:44.267Z,18.55
2018-09-11T07:40:52.916Z,18.55
2018-09-11T07:42:01.552Z,18.52
2018-09-11T07:43:10.206Z,18.57
2018-09-11T07:44:18.848Z,18.58
2018-09-11T07:45:27.522Z,18.57
2018-09-11T07:46:36.549Z,18.64
2018-09-11T07:47:45.209Z,18.68
2018-09-11T07:48:53.855Z,18.68
2018-09-11T07:50:02.508Z,18.71
2018-09-11T07:51:11.412Z,18.71
2018-09-11T07:52:20.069Z,18.78
2018-09-11T07:53:29.246Z,18.82
2018-09-11T07:54:37.894Z,18.86
2018-09-11T07:55:46.550Z,18.82
2018-09-11T07:56:55.187Z,18.96
2018-09-11T07:58:03.925Z,19
2018-09-11T07:59:12.478Z,18.98
2018-09-11T08:00:21.132Z,19.07
2018-09-11T08:01:29.774Z,19
2018-09-11T08:02:38.423Z,19.05
2018-09-11T08:03:47.066Z,19.05
2018-09-11T08:04:55.723Z,19.01
2018-09-11T08:06:04.356Z,19.07
2018-09-11T08:07:13.008Z,19.01
2018-09-11T08:08:21.651Z,18.98
2018-09-11T08:09:30.338Z,19.08
2018-09-11T08:10:38.950Z,19.15
2018-09-11T08:11:47.607Z,19.11
2018-09-11T08:12:56.539Z,19.22
2018-09-11T08:14:05.185Z,19.22
2018-09-11T08:15:13.842Z,19.16
2018-09-11T08:16:22.519Z,19.15
2018-09-11T08:17:31.136Z,19.29
2018-09-11T08:18:40.032Z,19.32
2018-09-11T08:19:49.388Z,19.44
2018-09-11T08:20:58.001Z,19.49
2018-09-11T08:22:07.192Z,19.57
2018-09-11T08:23:15.829Z,19.7
2018-09-11T08:24:24.487Z,19.72
2018-09-11T08:25:33.408Z,19.77
2018-09-11T08:26:42.059Z,19.84
2018-09-11T08:27:50.959Z,19.78
2018-09-11T08:28:59.609Z,19.81
2018-09-11T08:30:08.260Z,19.78
2018-09-11T08:31:16.903Z,19.85
2018-09-11T08:32:25.550Z,19.79
2018-09-11T08:33:34.475Z,19.75
2018-09-11T08:34:43.122Z,19.77
2018-09-11T08:35:51.774Z,19.78
2018-09-11T08:37:00.413Z,19.77
2018-09-11T08:38:09.069Z,19.79
2018-09-11T08:39:17.975Z,19.72
2018-09-11T08:40:26.626Z,19.89
2018-09-11T08:41:35.266Z,19.78
2018-09-11T08:42:43.922Z,19.9
2018-09-11T08:43:52.566Z,19.84
2018-09-11T08:45:01.214Z,19.94
2018-09-11T08:46:09.851Z,19.93
2018-09-11T08:47:18.500Z,19.96
2018-09-11T08:48:27.417Z,19.94
2018-09-11T08:49:36.062Z,20.02
2018-09-11T08:50:44.710Z,20.04
2018-09-11T08:51:53.355Z,20.03
2018-09-11T08:53:02.010Z,20.03
2018-09-11T08:54:10.657Z,20.1
2018-09-11T08:55:19.596Z,20.04
2018-09-11T08:56:28.233Z,19.97
2018-09-11T08:57:36.886Z,19.97
2018-09-11T08:58:45.531Z,19.9
2018-09-11T08:59:54.189Z,19.97
2018-09-11T09:01:02.827Z,19.96
2018-09-11T09:02:11.476Z,19.92
2018-09-11T09:03:20.121Z,19.94
2018-09-11T09:04:28.777Z,20.02
2018-09-11T09:05:37.421Z,20.02
2018-09-11T09:06:46.326Z,19.9
2018-09-11T09:07:55.242Z,19.93
2018-09-11T09:09:03.886Z,19.93
2018-09-11T09:10:12.696Z,19.93
2018-09-11T09:11:21.184Z,20.08
2018-09-11T09:12:29.836Z,20.14
2018-09-11T09:13:38.479Z,20.11
2018-09-11T09:14:47.137Z,20.17
2018-09-11T09:15:55.783Z,20.26
2018-09-11T09:17:04.434Z,20.17
2018-09-11T09:18:13.078Z,20.19
2018-09-11T09:19:21.735Z,20.18
2018-09-11T09:20:30.384Z,20.17
2018-09-11T09:21:39.034Z,20.12
2018-09-11T09:22:47.674Z,19.97
2018-09-11T09:23:56.319Z,20.03
2018-09-11T09:25:04.972Z,20.03
2018-09-11T09:26:13.618Z,20.11
2018-09-11T09:27:22.288Z,20.02
2018-09-11T09:28:30.904Z,19.97
2018-09-11T09:29:39.555Z,20.1
2018-09-11T09:30:48.202Z,20.22
2018-09-11T09:31:56.851Z,20.21
2018-09-11T09:33:05.762Z,20.37
2018-09-11T09:34:14.411Z,20.44
2018-09-11T09:35:23.075Z,20.63
2018-09-11T09:36:31.807Z,20.58
2018-09-11T09:37:40.376Z,20.73
2018-09-11T09:38:49.076Z,20.74
2018-09-11T09:39:57.987Z,20.6
2018-09-11T09:41:06.908Z,20.63
2018-09-11T09:42:15.554Z,20.55
2018-09-11T09:43:24.204Z,20.56
2018-09-11T09:44:32.849Z,20.49
2018-09-11T09:45:41.494Z,20.58
2018-09-11T09:46:50.415Z,20.64
2018-09-11T09:47:59.064Z,20.78
2018-09-11T09:49:07.716Z,20.89
2018-09-11T09:50:16.368Z,20.89
2018-09-11T09:51:25.020Z,21.05
2018-09-11T09:52:33.669Z,21.1
2018-09-11T09:53:42.599Z,21.17
2018-09-11T09:54:51.503Z,21.23
2018-09-11T09:56:00.158Z,21.26
2018-09-11T09:57:08.804Z,21.22
2018-09-11T09:58:17.454Z,21.17
2018-09-11T09:59:26.104Z,21.14
2018-09-11T10:00:34.750Z,21.15
2018-09-11T10:01:43.559Z,21.15
2018-09-11T10:02:52.208Z,21.07
2018-09-11T10:04:01.123Z,21.11
2018-09-11T10:05:09.769Z,21.04
2018-09-11T10:06:18.414Z,21.07
2018-09-11T10:07:27.064Z,21.1
2018-09-11T10:08:35.719Z,21.03
2018-09-11T10:09:44.367Z,21.17
2018-09-11T10:10:53.013Z,21.14
2018-09-11T10:12:01.661Z,21.23
2018-09-11T10:13:10.575Z,21.29
2018-09-11T10:14:19.230Z,21.33
2018-09-11T10:15:27.880Z,21.41
2018-09-11T10:16:36.643Z,21.47
2018-09-11T10:17:45.647Z,21.5
2018-09-11T10:18:54.231Z,21.54
2018-09-11T10:20:02.938Z,21.56
2018-09-11T10:21:11.673Z,21.8
2018-09-11T10:22:20.320Z,21.74
2018-09-11T10:23:29.074Z,21.84
2018-09-11T10:24:38.098Z,21.92
2018-09-11T10:25:46.795Z,21.91
2018-09-11T10:26:55.443Z,21.81
2018-09-11T10:28:04.753Z,21.91
2018-09-11T10:29:13.656Z,21.81
2018-09-11T10:30:22.318Z,21.83
2018-09-11T10:31:31.217Z,21.83
2018-09-11T10:32:40.468Z,21.99
2018-09-11T10:33:49.177Z,22
2018-09-11T10:34:57.856Z,22.01
2018-09-11T10:36:06.615Z,22.04
2018-09-11T10:37:15.572Z,22.15
2018-09-11T10:38:24.232Z,22.18
2018-09-11T10:39:32.957Z,22.1
2018-09-11T10:40:41.537Z,22.18
2018-09-11T10:41:50.177Z,22.08
2018-09-11T10:42:59.103Z,22.21
2018-09-11T10:44:07.749Z,22.23
2018-09-11T10:45:16.406Z,22.25
2018-09-11T10:46:25.050Z,22.41
2018-09-11T10:47:33.702Z,22.46
2018-09-11T10:48:42.357Z,22.46
2018-09-11T10:49:51.004Z,22.58
2018-09-11T10:50:59.648Z,22.61
2018-09-11T10:52:08.302Z,22.74
2018-09-11T10:53:16.949Z,22.68
2018-09-11T10:54:25.866Z,22.78
2018-09-11T10:55:34.512Z,22.7
2018-09-11T10:56:43.159Z,22.7
2018-09-11T10:57:51.806Z,22.73
2018-09-11T10:59:00.571Z,22.73
2018-09-11T11:00:09.233Z,22.74
2018-09-11T11:01:18.142Z,22.71
2018-09-11T11:02:26.797Z,22.71
2018-09-11T11:03:35.704Z,22.78
2018-09-11T11:04:44.363Z,22.78
2018-09-11T11:05:53.009Z,22.84
2018-09-11T11:07:01.661Z,22.93
2018-09-11T11:08:10.568Z,22.93
2018-09-11T11:09:19.225Z,22.96
2018-09-11T11:10:27.871Z,23.08
2018-09-11T11:11:36.523Z,23.07
2018-09-11T11:12:45.165Z,23.11
2018-09-11T11:13:53.815Z,23.16
2018-09-11T11:15:02.471Z,23.17
2018-09-11T11:16:11.123Z,23.21
2018-09-11T11:17:19.773Z,23.26
2018-09-11T11:18:28.417Z,23.25
2018-09-11T11:19:37.603Z,23.26
2018-09-11T11:20:46.246Z,23.29
2018-09-11T11:21:54.903Z,23.25
2018-09-11T11:23:03.545Z,23.36
2018-09-11T11:24:12.198Z,23.29
2018-09-11T11:25:20.842Z,23.37
2018-09-11T11:26:29.767Z,23.47
2018-09-11T11:27:38.411Z,23.48
2018-09-11T11:28:47.062Z,23.51
2018-09-11T11:29:55.711Z,23.58
2018-09-11T11:31:04.365Z,23.59
2018-09-11T11:32:13.012Z,23.47
2018-09-11T11:33:21.663Z,23.67
2018-09-11T11:34:30.309Z,23.58
2018-09-11T11:35:38.957Z,23.67
2018-09-11T11:36:47.746Z,23.71
2018-09-11T11:37:56.260Z,23.71
2018-09-11T11:39:04.924Z,23.79
2018-09-11T11:40:13.569Z,23.73
2018-09-11T11:41:22.224Z,23.86
2018-09-11T11:42:30.876Z,23.86
2018-09-11T11:43:39.527Z,23.95
2018-09-11T11:44:48.170Z,23.88
2018-09-11T11:45:56.824Z,24.04
2018-09-11T11:47:05.473Z,24.01
2018-09-11T11:48:14.499Z,24.03
2018-09-11T11:49:23.097Z,24.03
2018-09-11T11:50:31.750Z,23.91
2018-09-11T11:51:40.399Z,24.04
2018-09-11T11:52:49.051Z,24.04
2018-09-11T11:53:57.702Z,24.04
2018-09-11T11:55:06.358Z,24.07
2018-09-11T11:56:15.001Z,24.09
2018-09-11T11:57:23.652Z,24.13
2018-09-11T11:58:32.307Z,24.07
2018-09-11T11:59:40.956Z,24.1
2018-09-11T12:00:49.637Z,24
2018-09-11T12:01:58.386Z,24.03
2018-09-11T12:03:06.956Z,24.06
2018-09-11T12:04:15.601Z,24.04
2018-09-11T12:05:24.278Z,24.09
2018-09-11T12:06:32.923Z,24.13
2018-09-11T12:07:41.624Z,24.16
2018-09-11T12:08:50.607Z,24.21
2018-09-11T12:09:59.255Z,24.24
2018-09-11T12:11:07.906Z,24.14
2018-09-11T12:12:16.566Z,24.22
2018-09-11T12:13:25.216Z,24.21
2018-09-11T12:14:34.131Z,24.24
2018-09-11T12:15:42.779Z,24.25
2018-09-11T12:16:51.729Z,24.29
2018-09-11T12:18:00.372Z,24.41
2018-09-11T12:19:09.020Z,24.38
2018-09-11T12:20:17.671Z,24.38
2018-09-11T12:21:26.315Z,24.47
2018-09-11T12:22:34.974Z,24.48
2018-09-11T12:23:43.626Z,24.43
2018-09-11T12:24:52.542Z,24.58
2018-09-11T12:26:01.200Z,24.56
2018-09-11T12:27:09.848Z,24.41
2018-09-11T12:28:18.493Z,24.53
2018-09-11T12:29:27.141Z,24.44
2018-09-11T12:30:35.790Z,24.46
2018-09-11T12:31:44.714Z,24.4
2018-09-11T12:32:53.370Z,24.37
2018-09-11T12:34:02.020Z,24.46
2018-09-11T12:35:11.006Z,24.43
2018-09-11T12:36:19.949Z,24.58
2018-09-11T12:37:28.601Z,24.53
2018-09-11T12:38:37.250Z,24.53
2018-09-11T12:39:45.898Z,24.63
2018-09-11T12:40:54.552Z,24.61
2018-09-11T12:42:03.204Z,24.69
2018-09-11T12:43:11.857Z,24.63
2018-09-11T12:44:20.503Z,24.78
2018-09-11T12:45:29.419Z,24.78
2018-09-11T12:46:40.267Z,24.71
2018-09-11T12:47:49.850Z,24.78
2018-09-11T12:48:58.141Z,24.78
2018-09-11T12:50:06.787Z,24.71
2018-09-11T12:51:15.438Z,24.77
2018-09-11T12:52:24.100Z,24.79
2018-09-11T12:53:32.742Z,24.84
2018-09-11T12:54:41.717Z,24.75
2018-09-11T12:55:50.685Z,24.82
2018-09-11T12:56:59.602Z,24.89
2018-09-11T12:58:08.255Z,24.85
2018-09-11T12:59:17.163Z,24.84
2018-09-11T13:00:26.083Z,24.96
2018-09-11T13:01:34.729Z,24.92
2018-09-11T13:02:43.386Z,24.96
2018-09-11T13:03:52.034Z,24.84
2018-09-11T13:05:00.953Z,24.88
2018-09-11T13:06:09.598Z,24.88
2018-09-11T13:07:18.516Z,24.84
2018-09-11T13:08:27.171Z,24.82
2018-09-11T13:09:36.301Z,24.92
2018-09-11T13:10:45.515Z,24.86
2018-09-11T13:11:54.159Z,24.92
2018-09-11T13:13:02.816Z,24.99
2018-09-11T13:14:11.467Z,25.03
2018-09-11T13:15:20.118Z,25.04
2018-09-11T13:16:28.763Z,25.01
2018-09-11T13:17:37.417Z,24.99
2018-09-11T13:18:46.068Z,25.01
2018-09-11T13:19:54.984Z,25.01
2018-09-11T13:21:03.631Z,24.96
2018-09-11T13:22:14.335Z,24.93
2018-09-11T13:23:23.246Z,25.01
2018-09-11T13:24:31.903Z,25.01
2018-09-11T13:25:40.563Z,25.01
2018-09-11T13:26:49.205Z,25.07
2018-09-11T13:27:57.859Z,25.15
2018-09-11T13:29:06.504Z,25.09
2018-09-11T13:30:15.164Z,25.14
2018-09-11T13:31:23.804Z,25.04
2018-09-11T13:32:32.463Z,25.14
2018-09-11T13:33:41.127Z,25.15
2018-09-11T13:34:49.768Z,25.14
2018-09-11T13:35:58.410Z,25.09
2018-09-11T13:37:07.061Z,25.18
2018-09-11T13:38:15.708Z,25.15
2018-09-11T13:39:24.369Z,25.09
2018-09-11T13:40:33.016Z,25
2018-09-11T13:41:41.665Z,25
2018-09-11T13:42:50.319Z,24.96
2018-09-11T13:43:58.964Z,25.01
2018-09-11T13:45:07.890Z,25.04
2018-09-11T13:46:16.621Z,25.01
2018-09-11T13:47:25.896Z,25.04
2018-09-11T13:48:35.052Z,25.06
2018-09-11T13:49:43.713Z,25.01
2018-09-11T13:50:52.358Z,25.09
2018-09-11T13:52:01.015Z,24.96
2018-09-11T13:53:09.657Z,25.04
2018-09-11T13:54:18.313Z,24.97
2018-09-11T13:55:26.967Z,24.88
2018-09-11T13:56:35.619Z,24.84
2018-09-11T13:57:44.522Z,24.92
2018-09-11T13:58:53.178Z,24.89
2018-09-11T14:00:01.839Z,24.97
2018-09-11T14:01:10.491Z,25.04
2018-09-11T14:02:19.145Z,25.07
2018-09-11T14:03:27.789Z,25.12
2018-09-11T14:04:36.706Z,25.24
2018-09-11T14:05:45.350Z,25.21
2018-09-11T14:06:54.013Z,25.24
2018-09-11T14:08:02.659Z,25.24
2018-09-11T14:09:11.849Z,25.29
2018-09-11T14:10:20.488Z,25.25
2018-09-11T14:11:29.149Z,25.26
2018-09-11T14:12:37.794Z,25.21
2018-09-11T14:13:46.972Z,25.26
2018-09-11T14:14:55.874Z,25.25
2018-09-11T14:16:04.537Z,25.22
2018-09-11T14:17:13.447Z,25.15
2018-09-11T14:18:22.094Z,25.09
2018-09-11T14:19:30.744Z,25.15
2018-09-11T14:20:39.392Z,25.14
2018-09-11T14:21:48.052Z,25.18
2018-09-11T14:22:56.700Z,25.24
2018-09-11T14:24:05.350Z,25.14
2018-09-11T14:25:13.995Z,25.22
2018-09-11T14:26:22.649Z,25.26
2018-09-11T14:27:31.302Z,25.37
2018-09-11T14:28:39.957Z,25.34
2018-09-11T14:29:48.870Z,25.41
2018-09-11T14:30:57.523Z,25.4
2018-09-11T14:32:06.172Z,25.31
2018-09-11T14:33:14.825Z,25.44
2018-09-11T14:34:23.549Z,25.33
2018-09-11T14:35:32.430Z,25.33
2018-09-11T14:36:41.080Z,25.33
2018-09-11T14:37:49.731Z,25.36
2018-09-11T14:38:58.387Z,25.21
2018-09-11T14:40:07.031Z,25.15
2018-09-11T14:41:15.682Z,25.12
2018-09-11T14:42:24.334Z,25.21
2018-09-11T14:43:32.989Z,25.24
2018-09-11T14:44:41.636Z,25.11
2018-09-11T14:45:50.286Z,25.12
2018-09-11T14:46:58.945Z,25.19
2018-09-11T14:48:07.860Z,25.22